Time;durP1;ratioP1;P1;durP2;ratioP2;P2;SDS_P1;SDS_P2;PMS_P1;PMS_P2;Temp;Humidity;BMP_temperature;BMP_pressure;BME280_temperature;BME280_humidity;BME280_pressure;Samples;Min_cycle;Max_cycle;Signal;HPM_P1;HPM_P2
2021/03/17 00:00:39;;;;;;;0.75;0.40;;;3.70;99.90;;;;;;5064713;28;20052;-74
2021/03/17 00:03:05;;;;;;;0.43;0.43;;;3.70;99.90;;;;;;5065262;28;20029;-73
2021/03/17 00:05:34;;;;;;;3.53;0.70;;;3.70;99.90;;;;;;5084826;28;20104;-72
2021/03/17 00:08:00;;;;;;;11.27;0.82;;;3.70;99.90;;;;;;5084529;28;20025;-73
2021/03/17 00:10:28;;;;;;;3.95;0.65;;;3.70;99.90;;;;;;5084683;28;20040;-73
2021/03/17 00:12:56;;;;;;;2.45;0.35;;;3.60;99.90;;;;;;5083012;28;20090;-73
2021/03/17 00:15:24;;;;;;;1.40;0.60;;;3.70;99.90;;;;;;5084676;28;20085;-73
2021/03/17 00:17:50;;;;;;;1.38;0.40;;;3.60;99.90;;;;;;5084559;28;20067;-73
2021/03/17 00:20:16;;;;;;;0.90;0.60;;;3.60;99.90;;;;;;5082960;28;20036;-72
2021/03/17 00:22:42;;;;;;;2.72;0.77;;;3.60;99.90;;;;;;5083009;28;20485;-72
2021/03/17 00:25:09;;;;;;;0.90;0.50;;;3.60;99.90;;;;;;5070046;28;20040;-73
2021/03/17 00:27:35;;;;;;;0.50;0.40;;;3.70;99.90;;;;;;5064250;28;20300;-73
2021/03/17 00:30:01;;;;;;;0.73;0.40;;;3.70;99.90;;;;;;5064296;28;20029;-74
2021/03/17 00:32:26;;;;;;;2.75;1.30;;;3.70;99.90;;;;;;5063803;28;20056;-74
2021/03/17 00:34:53;;;;;;;0.17;0.17;;;3.70;99.90;;;;;;5064383;28;20044;-74
2021/03/17 00:37:18;;;;;;;2.00;0.60;;;3.70;99.90;;;;;;5064181;28;20077;-73
2021/03/17 00:39:44;;;;;;;0.70;0.40;;;3.80;99.90;;;;;;5064610;28;20025;-73
2021/03/17 00:42:10;;;;;;;0.10;0.10;;;3.70;99.90;;;;;;5065017;28;20033;-73
2021/03/17 00:44:36;;;;;;;1.38;0.52;;;3.70;99.90;;;;;;5065137;28;20055;-73
2021/03/17 00:47:02;;;;;;;3.60;0.52;;;3.70;99.90;;;;;;5080271;28;20021;-73
2021/03/17 00:49:28;;;;;;;7.15;0.63;;;3.80;99.90;;;;;;5065004;28;20025;-74
2021/03/17 00:51:53;;;;;;;0.75;0.47;;;3.80;99.90;;;;;;5064922;28;20044;-74
2021/03/17 00:54:19;;;;;;;7.57;0.70;;;3.80;99.90;;;;;;5064636;28;20047;-73
2021/03/17 00:56:45;;;;;;;0.30;0.28;;;3.70;99.90;;;;;;5080167;28;20032;-74
2021/03/17 00:59:10;;;;;;;0.73;0.50;;;3.70;99.90;;;;;;5080125;28;20060;-73
2021/03/17 01:01:36;;;;;;;1.38;0.20;;;3.60;99.90;;;;;;5064673;28;20025;-74
2021/03/17 01:04:01;;;;;;;2.47;0.43;;;3.50;99.90;;;;;;5064622;28;20037;-73
2021/03/17 01:06:27;;;;;;;0.50;0.22;;;3.50;99.90;;;;;;5064733;28;20033;-75
2021/03/17 01:08:53;;;;;;;1.40;0.47;;;3.40;99.90;;;;;;5064591;28;20048;-75
2021/03/17 01:11:19;;;;;;;0.60;0.20;;;3.40;99.90;;;;;;5064687;28;20033;-75
2021/03/17 01:13:45;;;;;;;0.95;0.38;;;3.40;99.90;;;;;;5064282;28;20053;-74
2021/03/17 01:16:10;;;;;;;1.13;0.70;;;3.40;99.90;;;;;;5064554;28;20037;-74
2021/03/17 01:18:36;;;;;;;2.92;0.50;;;3.40;99.90;;;;;;5064685;28;20044;-73
2021/03/17 01:21:02;;;;;;;0.35;0.20;;;3.40;99.90;;;;;;5064641;28;20029;-74
2021/03/17 01:23:28;;;;;;;9.07;0.22;;;3.40;99.90;;;;;;5064594;28;20029;-75
2021/03/17 01:25:54;;;;;;;3.80;0.55;;;3.40;99.90;;;;;;5064447;28;20044;-73
2021/03/17 01:28:19;;;;;;;0.40;0.25;;;3.40;99.90;;;;;;5064624;28;20092;-73
2021/03/17 01:30:46;;;;;;;0.50;0.40;;;3.40;99.90;;;;;;5079905;28;20124;-73
2021/03/17 01:33:13;;;;;;;1.77;0.50;;;3.50;99.90;;;;;;5064065;28;20033;-72
2021/03/17 01:35:40;;;;;;;1.67;0.85;;;3.50;99.90;;;;;;5064295;28;20087;-73
2021/03/17 01:38:06;;;;;;;1.05;0.68;;;3.50;99.90;;;;;;5064503;28;20033;-73
2021/03/17 01:40:34;;;;;;;10.75;0.60;;;3.50;99.90;;;;;;5064247;28;20396;-74
2021/03/17 01:43:00;;;;;;;8.25;0.43;;;3.50;99.90;;;;;;5064891;28;20029;-73
2021/03/17 01:45:25;;;;;;;10.52;0.43;;;3.50;99.90;;;;;;5083769;28;20072;-74
2021/03/17 01:47:53;;;;;;;2.45;0.73;;;3.50;99.90;;;;;;5068145;28;20037;-73
2021/03/17 01:50:22;;;;;;;2.42;0.70;;;3.50;99.90;;;;;;5083593;28;20647;-73
2021/03/17 01:52:48;;;;;;;0.77;0.25;;;3.50;99.90;;;;;;5068183;28;20075;-73
2021/03/17 01:55:16;;;;;;;1.52;0.50;;;3.40;99.90;;;;;;5083166;28;20037;-73
2021/03/17 01:57:42;;;;;;;0.43;0.20;;;3.40;99.90;;;;;;5068010;28;20048;-73
2021/03/17 02:00:12;;;;;;;10.23;0.57;;;3.40;99.90;;;;;;5068069;28;20025;-73
2021/03/17 02:02:39;;;;;;;4.55;0.98;;;3.40;99.90;;;;;;5083101;28;20473;-73
2021/03/17 02:05:14;;;;;;;0.77;0.47;;;3.40;99.90;;;;;;5067795;28;20031;-73
2021/03/17 02:07:40;;;;;;;0.38;0.32;;;3.40;99.90;;;;;;5067831;28;20031;-74
2021/03/17 02:10:12;;;;;;;1.33;0.40;;;3.40;99.90;;;;;;5084808;28;20050;-74
2021/03/17 02:12:44;;;;;;;1.48;0.55;;;3.40;99.90;;;;;;5086142;28;20084;-74
2021/03/17 02:15:14;;;;;;;0.95;0.68;;;3.40;99.90;;;;;;5087362;28;20047;-75
2021/03/17 02:17:46;;;;;;;1.70;1.17;;;3.40;99.90;;;;;;5087743;28;20024;-75
2021/03/17 02:20:52;;;;;;;5.45;0.90;;;3.40;99.90;;;;;;5084880;28;20031;-74
2021/03/17 02:23:41;;;;;;;1.02;0.60;;;3.30;99.90;;;;;;5086832;28;20040;-75
2021/03/17 02:26:28;;;;;;;2.70;0.45;;;3.30;99.90;;;;;;5086099;28;20088;-74
2021/03/17 02:29:16;;;;;;;0.30;0.28;;;3.20;99.90;;;;;;5087619;28;20024;-75
2021/03/17 02:32:02;;;;;;;0.82;0.50;;;3.20;99.90;;;;;;5087485;28;20020;-74
2021/03/17 02:34:32;;;;;;;1.08;0.63;;;3.20;99.90;;;;;;5087520;28;20147;-75
2021/03/17 02:37:12;;;;;;;2.55;0.43;;;3.10;99.90;;;;;;5087496;28;20039;-74
2021/03/17 02:39:46;;;;;;;0.85;0.40;;;3.10;99.90;;;;;;5085880;28;20052;-74
2021/03/17 02:42:19;;;;;;;;;;;3.20;99.90;;;;;;5087648;28;20052;-73
2021/03/17 02:45:09;;;;;;;7.30;1.00;;;3.20;99.90;;;;;;5087179;28;19975;-73
2021/03/17 02:47:40;;;;;;;1.20;0.47;;;3.30;99.90;;;;;;5087184;28;20028;-74
2021/03/17 02:50:10;;;;;;;10.05;0.98;;;3.30;99.90;;;;;;5087078;28;20473;-73
2021/03/17 02:52:39;;;;;;;1.08;0.55;;;3.20;99.90;;;;;;5085808;28;20052;-74
2021/03/17 02:55:06;;;;;;;7.47;0.60;;;3.20;99.90;;;;;;5086544;28;20044;-74
2021/03/17 02:57:35;;;;;;;0.65;0.45;;;3.20;99.90;;;;;;5086849;28;20028;-75
2021/03/17 03:00:03;;;;;;;8.63;0.55;;;3.20;99.90;;;;;;5086986;28;20051;-74
2021/03/17 03:02:29;;;;;;;4.13;0.85;;;3.20;99.90;;;;;;5087096;28;20032;-74
2021/03/17 03:04:56;;;;;;;3.20;0.38;;;3.20;99.90;;;;;;5087035;28;20048;-74
2021/03/17 03:07:23;;;;;;;1.80;1.00;;;3.20;99.90;;;;;;5087024;28;20020;-73
2021/03/17 03:09:50;;;;;;;0.90;0.45;;;3.20;99.90;;;;;;5085403;28;20042;-72
2021/03/17 03:12:18;;;;;;;2.03;1.33;;;3.20;99.90;;;;;;5086417;28;20123;-72
2021/03/17 03:14:44;;;;;;;0.45;0.35;;;3.20;99.90;;;;;;5086498;28;20072;-73
2021/03/17 03:17:12;;;;;;;0.43;0.35;;;3.20;99.90;;;;;;5086389;28;20032;-73
2021/03/17 03:19:47;;;;;;;0.20;0.20;;;3.20;99.90;;;;;;5086558;28;20077;-73
2021/03/17 03:22:14;;;;;;;1.85;0.70;;;3.20;99.90;;;;;;5085381;28;20033;-73
2021/03/17 03:24:42;;;;;;;3.75;0.85;;;3.30;99.90;;;;;;5086453;28;20021;-73
2021/03/17 03:27:08;;;;;;;1.48;0.40;;;3.30;99.90;;;;;;5086271;28;20025;-73
2021/03/17 03:29:34;;;;;;;9.13;0.55;;;3.30;99.90;;;;;;5085137;28;20029;-73
2021/03/17 03:32:02;;;;;;;3.28;0.88;;;3.30;99.90;;;;;;5086267;28;20025;-74
2021/03/17 03:34:28;;;;;;;4.10;1.00;;;3.30;99.90;;;;;;5086260;28;20100;-74
2021/03/17 03:36:55;;;;;;;4.10;1.10;;;3.30;99.90;;;;;;5086837;28;20028;-73
2021/03/17 03:39:21;;;;;;;0.73;0.60;;;3.30;99.90;;;;;;5086482;28;20033;-73
2021/03/17 03:41:47;;;;;;;0.70;0.47;;;3.30;99.90;;;;;;5086091;28;20040;-73
2021/03/17 03:44:13;;;;;;;4.93;0.68;;;3.40;99.90;;;;;;5086117;28;20032;-73
2021/03/17 03:46:39;;;;;;;2.72;0.55;;;3.30;99.90;;;;;;5085878;28;20111;-73
2021/03/17 03:49:06;;;;;;;0.68;0.40;;;3.30;99.90;;;;;;5085914;28;20039;-74
2021/03/17 03:51:34;;;;;;;2.47;0.90;;;3.30;99.90;;;;;;5084516;28;20021;-72
2021/03/17 03:54:05;;;;;;;0.85;0.70;;;3.30;99.90;;;;;;5085814;28;20036;-74
2021/03/17 03:56:38;;;;;;;5.63;0.40;;;3.30;99.90;;;;;;5085832;28;20028;-74
2021/03/17 03:59:14;;;;;;;8.13;0.77;;;3.30;99.90;;;;;;5085814;28;20021;-74
2021/03/17 04:01:56;;;;;;;0.82;0.63;;;3.30;99.90;;;;;;5085693;28;20028;-73
2021/03/17 04:04:26;;;;;;;1.35;0.52;;;3.40;99.90;;;;;;5084629;28;20036;-73
2021/03/17 04:06:55;;;;;;;1.55;0.85;;;3.40;99.90;;;;;;5085210;28;20020;-75
2021/03/17 04:09:26;;;;;;;0.60;0.60;;;3.40;99.90;;;;;;5085535;28;20109;-73
2021/03/17 04:11:57;;;;;;;3.08;0.80;;;3.40;99.90;;;;;;5085484;28;20332;-73
2021/03/17 04:14:24;;;;;;;0.40;0.30;;;3.40;99.90;;;;;;5085921;28;20115;-73
2021/03/17 04:16:51;;;;;;;3.22;1.08;;;3.40;99.90;;;;;;5085755;28;20046;-73
2021/03/17 04:19:17;;;;;;;1.02;0.50;;;3.40;99.90;;;;;;5085211;28;20108;-73
2021/03/17 04:21:44;;;;;;;3.20;0.88;;;3.40;99.90;;;;;;5085265;28;20659;-73
2021/03/17 04:24:10;;;;;;;1.23;0.52;;;3.40;99.90;;;;;;5085297;28;20092;-73
2021/03/17 04:26:37;;;;;;;2.13;0.60;;;3.40;99.90;;;;;;5085225;28;20036;-73
2021/03/17 04:29:03;;;;;;;1.77;0.60;;;3.40;99.90;;;;;;5083899;28;20391;-73
2021/03/17 04:31:30;;;;;;;1.60;0.25;;;3.40;99.90;;;;;;5085373;28;20103;-73
2021/03/17 04:33:57;;;;;;;2.08;0.32;;;3.40;99.90;;;;;;5085002;28;20040;-74
2021/03/17 04:36:23;;;;;;;5.75;0.85;;;3.40;99.90;;;;;;5085374;28;20020;-73
2021/03/17 04:38:49;;;;;;;0.77;0.45;;;3.40;99.90;;;;;;5083934;28;20021;-73
2021/03/17 04:41:16;;;;;;;4.80;0.88;;;3.40;99.90;;;;;;5084880;28;20028;-73
2021/03/17 04:43:43;;;;;;;1.10;0.60;;;3.40;99.90;;;;;;5083488;28;20194;-73
2021/03/17 04:46:10;;;;;;;1.15;0.38;;;3.50;99.90;;;;;;5085033;28;20024;-74
2021/03/17 04:48:40;;;;;;;2.55;1.15;;;3.40;99.90;;;;;;5083798;28;20028;-73
2021/03/17 04:51:08;;;;;;;2.17;0.60;;;3.40;99.90;;;;;;5084861;28;20021;-73
2021/03/17 04:53:34;;;;;;;2.33;0.80;;;3.40;99.90;;;;;;5084907;28;20499;-73
2021/03/17 04:56:08;;;;;;;0.70;0.30;;;3.40;99.90;;;;;;5084618;28;20036;-74
2021/03/17 04:58:37;;;;;;;0.97;0.60;;;3.40;99.90;;;;;;5084712;28;20092;-73
2021/03/17 05:01:14;;;;;;;1.65;0.68;;;3.40;99.90;;;;;;5084622;28;20040;-74
2021/03/17 05:03:41;;;;;;;5.25;0.57;;;3.50;99.90;;;;;;5083344;28;20048;-73
2021/03/17 05:06:08;;;;;;;1.65;0.82;;;3.50;99.90;;;;;;5083506;28;20025;-74
2021/03/17 05:08:38;;;;;;;1.45;0.80;;;3.50;99.90;;;;;;5084784;28;20029;-74
2021/03/17 05:11:04;;;;;;;1.92;0.52;;;3.50;99.90;;;;;;5084685;28;20029;-74
2021/03/17 05:13:31;;;;;;;2.17;0.73;;;3.50;99.90;;;;;;5084464;28;20056;-74
2021/03/17 05:15:58;;;;;;;0.75;0.25;;;3.60;99.90;;;;;;5084289;28;20045;-74
2021/03/17 05:18:34;;;;;;;2.97;0.63;;;3.60;99.90;;;;;;5084389;28;20028;-74
2021/03/17 05:21:01;;;;;;;3.72;0.63;;;3.60;99.90;;;;;;5088030;28;20024;-74
2021/03/17 05:23:27;;;;;;;6.18;0.68;;;3.50;99.90;;;;;;5089767;28;20029;-73
2021/03/17 05:25:54;;;;;;;0.70;0.32;;;3.60;99.90;;;;;;5091375;28;20024;-75
2021/03/17 05:28:21;;;;;;;3.53;0.50;;;3.60;99.90;;;;;;5088588;28;20036;-74
2021/03/17 05:30:49;;;;;;;1.27;0.45;;;3.70;99.90;;;;;;5088930;28;20063;-74
2021/03/17 05:33:16;;;;;;;1.77;0.55;;;3.70;99.90;;;;;;5090696;28;20599;-73
2021/03/17 05:35:42;;;;;;;13.52;0.98;;;3.70;99.90;;;;;;5090821;28;20029;-73
2021/03/17 05:38:08;;;;;;;0.85;0.50;;;3.70;99.90;;;;;;5091115;28;20029;-74
2021/03/17 05:40:36;;;;;;;0.63;0.43;;;3.70;99.90;;;;;;5091166;28;20031;-74
2021/03/17 05:43:04;;;;;;;1.55;0.47;;;3.70;99.90;;;;;;5091109;28;20044;-74
2021/03/17 05:45:32;;;;;;;9.35;0.73;;;3.70;99.90;;;;;;5091282;28;20024;-73
2021/03/17 05:47:58;;;;;;;0.75;0.55;;;3.70;99.90;;;;;;5091637;28;20033;-74
2021/03/17 05:50:24;;;;;;;4.28;0.47;;;3.70;99.90;;;;;;5091117;28;20469;-73
2021/03/17 05:52:50;;;;;;;1.25;0.40;;;3.60;99.90;;;;;;5091224;28;20070;-74
2021/03/17 05:55:16;;;;;;;2.00;0.52;;;3.60;99.90;;;;;;5090671;28;20055;-73
2021/03/17 05:57:44;;;;;;;4.13;0.93;;;3.60;99.90;;;;;;5089104;28;20032;-73
2021/03/17 06:00:18;;;;;;;5.07;1.02;;;3.60;99.90;;;;;;5084371;28;20040;-72
2021/03/17 06:02:44;;;;;;;10.73;0.75;;;3.60;99.90;;;;;;5070814;28;20028;-74
2021/03/17 06:05:11;;;;;;;1.00;0.75;;;3.60;99.90;;;;;;5070610;28;20051;-72
2021/03/17 06:07:54;;;;;;;2.83;1.52;;;3.70;99.90;;;;;;5070633;28;20025;-73
2021/03/17 06:10:20;;;;;;;1.45;0.77;;;3.70;99.90;;;;;;5070500;28;20061;-73
2021/03/17 06:12:51;;;;;;;0.75;0.50;;;3.70;99.90;;;;;;5085552;28;20118;-73
2021/03/17 06:15:22;;;;;;;1.45;0.43;;;3.70;99.90;;;;;;5070420;28;20497;-72
2021/03/17 06:17:53;;;;;;;1.02;0.60;;;3.80;99.90;;;;;;5089078;28;20024;-73
2021/03/17 06:20:20;;;;;;;3.20;0.47;;;3.80;99.90;;;;;;5090610;28;20021;-73
2021/03/17 06:22:45;;;;;;;1.00;0.38;;;3.70;99.90;;;;;;5090495;28;20038;-73
2021/03/17 06:25:12;;;;;;;6.22;0.98;;;3.80;99.90;;;;;;5090309;28;20044;-73
2021/03/17 06:27:38;;;;;;;0.73;0.30;;;3.80;99.90;;;;;;5088999;28;20078;-73
2021/03/17 06:30:05;;;;;;;6.13;0.57;;;3.80;99.90;;;;;;5086779;28;20132;-72
2021/03/17 06:32:32;;;;;;;0.50;0.50;;;3.80;99.90;;;;;;5087055;28;20027;-73
2021/03/17 06:34:58;;;;;;;0.50;0.50;;;3.90;99.90;;;;;;5082074;28;20033;-74
2021/03/17 06:37:35;;;;;;;3.17;0.95;;;3.90;99.90;;;;;;5067078;28;20031;-75
2021/03/17 06:40:01;;;;;;;3.85;0.80;;;3.90;99.90;;;;;;5076371;28;20025;-73
2021/03/17 06:42:53;;;;;;;0.32;0.32;;;3.90;99.90;;;;;;5086398;28;20067;-74
2021/03/17 06:45:47;;;;;;;1.08;0.85;;;4.00;99.90;;;;;;5087599;28;20024;-72
2021/03/17 06:48:38;;;;;;;5.75;0.80;;;4.00;99.90;;;;;;5085952;28;20043;-74
2021/03/17 06:51:14;;;;;;;3.88;0.65;;;4.10;99.90;;;;;;5072862;28;20033;-74
2021/03/17 06:53:49;;;;;;;2.55;0.75;;;4.10;99.90;;;;;;5066865;28;20036;-74
2021/03/17 06:56:26;;;;;;;0.43;0.43;;;4.10;99.90;;;;;;5066927;28;20091;-75
2021/03/17 06:58:57;;;;;;;1.75;1.17;;;4.20;99.90;;;;;;5066886;28;20029;-73
2021/03/17 07:01:56;;;;;;;0.93;0.43;;;4.20;99.90;;;;;;5066794;28;20068;-73
2021/03/17 07:04:36;;;;;;;1.55;0.50;;;4.20;99.90;;;;;;5066632;28;20025;-73
2021/03/17 07:07:04;;;;;;;0.47;0.47;;;4.20;99.90;;;;;;5077076;28;20038;-73
2021/03/17 07:09:31;;;;;;;9.27;1.17;;;4.20;99.90;;;;;;5084608;28;20032;-74
2021/03/17 07:12:08;;;;;;;0.35;0.35;;;4.20;99.90;;;;;;5067628;28;20056;-72
2021/03/17 07:14:46;;;;;;;3.50;0.85;;;4.30;99.90;;;;;;5081364;28;20136;-74
2021/03/17 07:17:31;;;;;;;1.88;0.60;;;4.30;99.90;;;;;;5064345;28;20024;-72
2021/03/17 07:19:57;;;;;;;0.98;0.60;;;4.40;99.90;;;;;;5080349;28;20056;-73
2021/03/17 07:22:25;;;;;;;6.80;0.65;;;4.50;99.90;;;;;;5080627;28;20488;-73
2021/03/17 07:24:59;;;;;;;1.83;0.50;;;4.70;99.90;;;;;;5082685;28;20043;-73
2021/03/17 07:27:29;;;;;;;4.00;0.98;;;4.80;99.90;;;;;;5081460;28;20033;-75
2021/03/17 07:30:16;;;;;;;3.25;0.70;;;5.00;99.90;;;;;;5066269;28;20024;-74
2021/03/17 07:33:06;;;;;;;0.77;0.43;;;5.10;99.90;;;;;;5065653;28;20041;-74
2021/03/17 07:35:37;;;;;;;1.70;0.73;;;5.20;99.90;;;;;;5064291;28;20355;-75
2021/03/17 07:38:11;;;;;;;3.75;0.90;;;5.30;99.90;;;;;;5064388;28;20025;-74
2021/03/17 07:40:47;;;;;;;0.57;0.40;;;5.20;99.90;;;;;;5064463;28;20052;-74
2021/03/17 07:43:15;;;;;;;7.32;0.98;;;5.40;99.90;;;;;;5065814;28;20063;-74
2021/03/17 07:45:42;;;;;;;7.30;0.70;;;5.50;99.90;;;;;;5065800;28;20024;-74
2021/03/17 07:48:10;;;;;;;5.70;0.57;;;5.60;99.90;;;;;;5083752;28;20029;-73
2021/03/17 07:50:37;;;;;;;7.80;0.88;;;5.50;99.90;;;;;;5073146;28;20036;-74
2021/03/17 07:53:08;;;;;;;5.72;1.23;;;5.50;99.90;;;;;;5066295;28;20110;-72
2021/03/17 07:55:37;;;;;;;1.73;0.40;;;5.40;99.90;;;;;;5076759;28;20037;-74
2021/03/17 07:58:04;;;;;;;6.43;0.50;;;5.50;99.90;;;;;;5083811;28;20029;-73
2021/03/17 08:00:30;;;;;;;1.67;0.50;;;5.40;99.90;;;;;;5069829;28;20029;-74
2021/03/17 08:02:56;;;;;;;1.90;0.77;;;5.50;99.90;;;;;;5066143;28;20029;-74
2021/03/17 08:05:22;;;;;;;8.20;0.75;;;5.40;99.90;;;;;;5085028;28;20088;-73
2021/03/17 08:07:49;;;;;;;6.70;0.93;;;5.50;99.90;;;;;;5065454;28;20041;-73
2021/03/17 08:10:15;;;;;;;3.20;0.80;;;5.50;99.90;;;;;;5065091;28;20203;-73
2021/03/17 08:12:45;;;;;;;0.65;0.47;;;5.60;99.90;;;;;;5080221;28;20049;-73
2021/03/17 08:15:15;;;;;;;10.30;0.88;;;5.60;99.90;;;;;;5065031;28;20064;-74
2021/03/17 08:17:41;;;;;;;2.03;0.88;;;5.70;99.90;;;;;;5065072;28;20074;-73
2021/03/17 08:20:24;;;;;;;8.85;1.17;;;5.90;99.90;;;;;;5080584;28;20393;-74
2021/03/17 08:22:51;;;;;;;1.52;0.80;;;5.90;99.90;;;;;;5064776;28;20017;-73
2021/03/17 08:25:37;;;;;;;1.90;0.95;;;6.00;99.90;;;;;;5079963;28;20107;-73
2021/03/17 08:28:17;;;;;;;3.30;0.85;;;5.90;99.90;;;;;;5064861;28;20033;-73
2021/03/17 08:30:43;;;;;;;0.77;0.35;;;5.90;99.90;;;;;;5064840;28;20025;-73
2021/03/17 08:33:09;;;;;;;3.65;0.50;;;5.70;99.90;;;;;;5064845;28;20029;-73
2021/03/17 08:36:01;;;;;;;2.20;0.60;;;5.70;99.90;;;;;;5064711;28;20037;-73
2021/03/17 08:38:58;;;;;;;1.33;0.90;;;5.70;99.90;;;;;;5064640;28;20429;-74
2021/03/17 08:41:41;;;;;;;10.73;1.48;;;5.70;99.90;;;;;;5064549;28;20020;-73
2021/03/17 08:44:17;;;;;;;1.10;0.63;;;5.80;99.90;;;;;;5070022;28;20036;-74
2021/03/17 08:46:43;;;;;;;2.90;1.25;;;6.00;99.90;;;;;;5063267;28;20025;-73
2021/03/17 08:49:10;;;;;;;2.17;0.88;;;6.10;99.90;;;;;;5064608;28;20021;-73
2021/03/17 08:51:45;;;;;;;3.67;0.95;;;6.20;99.90;;;;;;5063649;28;20028;-74
2021/03/17 08:54:33;;;;;;;4.93;0.85;;;6.30;99.90;;;;;;5073877;28;20039;-73
2021/03/17 08:57:00;;;;;;;2.10;0.52;;;6.40;99.90;;;;;;5084318;28;20031;-74
2021/03/17 08:59:46;;;;;;;1.05;0.77;;;6.50;99.90;;;;;;5081715;28;20031;-75
2021/03/17 09:02:19;;;;;;;0.40;0.20;;;6.50;99.90;;;;;;5081409;28;20024;-75
2021/03/17 09:04:50;;;;;;;8.80;0.93;;;6.50;99.90;;;;;;5079853;28;20021;-73
2021/03/17 09:07:16;;;;;;;1.58;0.40;;;6.50;99.90;;;;;;5083875;28;20028;-74
2021/03/17 09:09:59;;;;;;;4.07;0.50;;;6.50;99.90;;;;;;5084327;28;20024;-73
2021/03/17 09:12:24;;;;;;;5.72;1.08;;;6.80;99.90;;;;;;5083470;28;20082;-74
2021/03/17 09:14:51;;;;;;;0.70;0.43;;;7.00;99.90;;;;;;5083207;28;20131;-73
2021/03/17 09:17:26;;;;;;;5.95;0.60;;;7.10;99.90;;;;;;5083122;28;20035;-74
2021/03/17 09:20:06;;;;;;;1.90;0.75;;;7.30;99.90;;;;;;5082634;28;20567;-73
2021/03/17 09:22:42;;;;;;;3.22;0.73;;;7.50;99.90;;;;;;5082125;28;20025;-75
2021/03/17 09:25:27;;;;;;;4.40;0.77;;;7.70;99.90;;;;;;5082411;28;20051;-73
2021/03/17 09:28:08;;;;;;;5.75;1.33;;;7.80;99.90;;;;;;5083889;28;20028;-73
2021/03/17 09:30:41;;;;;;;4.05;0.95;;;7.80;99.90;;;;;;5083975;28;20033;-73
2021/03/17 09:33:13;;;;;;;2.42;0.70;;;7.90;99.90;;;;;;5084093;28;20077;-73
2021/03/17 09:35:41;;;;;;;1.98;0.95;;;7.90;99.90;;;;;;5084184;28;20100;-73
2021/03/17 09:38:10;;;;;;;2.25;0.75;;;7.80;99.90;;;;;;5083985;28;20076;-71
2021/03/17 09:40:39;;;;;;;3.05;0.73;;;7.80;99.90;;;;;;5082485;28;20115;-73
2021/03/17 09:43:32;;;;;;;0.68;0.68;;;7.70;99.90;;;;;;5079790;28;20362;-73
2021/03/17 09:45:59;;;;;;;0.47;0.30;;;7.60;99.90;;;;;;5062462;28;20051;-73
2021/03/17 09:48:26;;;;;;;3.67;0.35;;;7.40;99.90;;;;;;5062860;28;20022;-73
2021/03/17 09:50:58;;;;;;;4.63;0.90;;;7.40;99.90;;;;;;5064118;28;20031;-73
2021/03/17 09:53:25;;;;;;;3.05;0.70;;;7.60;99.90;;;;;;5064415;28;20119;-74
2021/03/17 09:55:51;;;;;;;2.47;0.63;;;7.60;99.90;;;;;;5063209;28;20053;-74
2021/03/17 09:58:17;;;;;;;2.17;0.70;;;7.70;99.90;;;;;;5064061;28;20083;-73
2021/03/17 10:00:47;;;;;;;3.00;0.85;;;7.70;99.90;;;;;;5063935;28;20025;-72
2021/03/17 10:03:13;;;;;;;4.72;0.50;;;7.60;99.90;;;;;;5063864;28;20067;-73
2021/03/17 10:05:39;;;;;;;1.75;0.63;;;7.90;99.90;;;;;;5066629;28;20349;-73
2021/03/17 10:08:06;;;;;;;1.52;0.75;;;8.50;99.90;;;;;;5067812;28;20086;-73
2021/03/17 10:10:33;;;;;;;0.22;0.22;;;8.90;99.90;;;;;;5066131;28;20052;-74
2021/03/17 10:13:00;;;;;;;2.40;0.77;;;9.40;99.90;;;;;;5067779;28;20083;-76
2021/03/17 10:15:27;;;;;;;2.70;0.50;;;9.80;99.90;;;;;;5067546;28;20452;-75
2021/03/17 10:17:57;;;;;;;0.20;0.20;;;9.80;99.90;;;;;;5083395;28;20033;-73
2021/03/17 10:20:27;;;;;;;1.08;0.70;;;9.90;99.90;;;;;;5067750;28;20116;-73
2021/03/17 10:22:57;;;;;;;0.47;0.38;;;10.30;99.90;;;;;;5067877;28;20021;-73
2021/03/17 10:25:27;;;;;;;2.50;0.75;;;10.60;99.90;;;;;;5067434;28;20028;-73
2021/03/17 10:27:58;;;;;;;0.38;0.30;;;11.00;99.90;;;;;;5067378;28;20013;-73
2021/03/17 10:30:29;;;;;;;0.77;0.43;;;11.30;99.90;;;;;;5071761;28;20031;-74
2021/03/17 10:33:00;;;;;;;2.90;0.50;;;11.60;99.90;;;;;;5087254;28;20051;-73
2021/03/17 10:35:27;;;;;;;1.90;0.63;;;11.80;99.90;;;;;;5067523;28;20033;-71
2021/03/17 10:37:52;;;;;;;2.83;0.88;;;11.90;99.90;;;;;;5068643;28;20028;-71
2021/03/17 10:40:22;;;;;;;0.73;0.45;;;11.70;99.90;;;;;;5084438;28;20035;-73
2021/03/17 10:42:57;;;;;;;5.30;0.80;;;11.50;99.90;;;;;;5085017;28;20060;-73
2021/03/17 10:45:50;;;;;;;4.35;0.70;;;11.30;99.90;;;;;;5069518;28;20025;-72
2021/03/17 10:48:18;;;;;;;3.03;0.75;;;11.10;99.90;;;;;;5070849;28;20051;-72
2021/03/17 10:50:45;;;;;;;0.77;0.32;;;11.00;99.90;;;;;;5073571;28;20029;-72
2021/03/17 10:53:14;;;;;;;1.73;1.10;;;11.20;99.90;;;;;;5080399;28;20021;-72
2021/03/17 10:55:40;;;;;;;1.60;0.63;;;11.30;99.90;;;;;;5086992;28;20108;-73
2021/03/17 10:58:11;;;;;;;5.53;0.73;;;11.50;99.90;;;;;;5074879;28;20025;-73
2021/03/17 11:00:37;;;;;;;2.85;0.70;;;11.90;99.90;;;;;;5066556;28;20033;-73
2021/03/17 11:03:20;;;;;;;3.50;1.10;;;12.50;99.90;;;;;;5067028;28;20100;-73
2021/03/17 11:05:46;;;;;;;1.95;0.68;;;12.90;99.90;;;;;;5067396;28;20082;-73
2021/03/17 11:08:11;;;;;;;1.38;0.60;;;13.20;99.90;;;;;;5065897;28;20108;-73
2021/03/17 11:10:45;;;;;;;0.47;0.22;;;13.30;99.90;;;;;;5066306;28;20029;-72
2021/03/17 11:13:16;;;;;;;2.17;0.57;;;13.40;99.90;;;;;;5065939;28;20051;-72
2021/03/17 11:15:48;;;;;;;0.70;0.57;;;13.20;99.90;;;;;;5064452;28;20500;-73
2021/03/17 11:18:30;;;;;;;2.17;0.60;;;13.10;99.90;;;;;;5066553;28;20512;-72
2021/03/17 11:21:02;;;;;;;3.15;0.50;;;12.90;99.90;;;;;;5066401;28;20040;-72
2021/03/17 11:23:46;;;;;;;1.98;0.90;;;12.70;99.90;;;;;;5065988;28;20025;-74
2021/03/17 11:26:41;;;;;;;0.40;0.30;;;12.40;99.90;;;;;;5064793;28;20021;-72
2021/03/17 11:29:17;;;;;;;1.65;0.60;;;12.40;99.90;;;;;;5060878;28;20045;-73
2021/03/17 11:31:44;;;;;;;7.93;1.10;;;12.60;99.90;;;;;;5065832;28;20037;-72
2021/03/17 11:34:13;;;;;;;1.33;0.90;;;13.00;99.90;;;;;;5066023;28;20026;-71
2021/03/17 11:36:40;;;;;;;3.55;0.93;;;13.40;99.90;;;;;;5065696;28;20071;-72
2021/03/17 11:39:08;;;;;;;1.38;0.60;;;13.50;99.90;;;;;;5066115;28;20044;-72
2021/03/17 11:41:34;;;;;;;0.82;0.43;;;13.70;99.90;;;;;;5065785;28;20021;-72
2021/03/17 11:44:00;;;;;;;0.93;0.55;;;13.90;99.90;;;;;;5064636;28;20028;-73
2021/03/17 11:46:26;;;;;;;1.42;0.80;;;14.00;99.90;;;;;;5066248;28;20037;-72
2021/03/17 11:48:52;;;;;;;2.50;1.02;;;13.80;99.90;;;;;;5065845;28;20051;-72
2021/03/17 11:51:18;;;;;;;3.38;0.85;;;13.30;99.90;;;;;;5065931;28;20044;-72
2021/03/17 11:53:44;;;;;;;1.60;0.65;;;12.80;99.90;;;;;;5065656;28;20747;-72
2021/03/17 11:56:11;;;;;;;1.85;0.73;;;12.50;99.90;;;;;;5065522;28;20092;-72
2021/03/17 11:58:38;;;;;;;1.80;0.57;;;12.10;99.90;;;;;;5065618;28;20466;-72
2021/03/17 12:01:04;;;;;;;2.00;0.85;;;11.90;99.90;;;;;;5065562;28;20047;-72
2021/03/17 12:03:31;;;;;;;3.78;1.13;;;11.70;99.90;;;;;;5065535;28;20470;-72
2021/03/17 12:05:58;;;;;;;1.08;0.88;;;11.50;99.90;;;;;;5064304;28;20024;-73
2021/03/17 12:08:24;;;;;;;3.80;1.10;;;11.30;99.90;;;;;;5065511;28;20112;-73
2021/03/17 12:10:51;;;;;;;4.93;1.10;;;11.00;99.90;;;;;;5065185;28;20040;-72
2021/03/17 12:13:21;;;;;;;1.98;0.70;;;10.80;99.90;;;;;;5065240;28;20045;-72
2021/03/17 12:15:48;;;;;;;11.65;1.08;;;10.80;99.90;;;;;;5065424;28;20045;-72
2021/03/17 12:18:14;;;;;;;5.13;1.23;;;10.80;99.90;;;;;;5065348;28;20025;-72
2021/03/17 12:20:41;;;;;;;2.90;0.80;;;11.20;99.90;;;;;;5065930;28;20025;-72
2021/03/17 12:23:07;;;;;;;1.15;0.75;;;11.90;99.90;;;;;;5065321;28;20454;-72
2021/03/17 12:25:33;;;;;;;3.60;1.08;;;12.20;99.90;;;;;;5064977;28;20025;-72
2021/03/17 12:27:58;;;;;;;1.10;0.68;;;12.20;99.90;;;;;;5064725;28;20044;-73
2021/03/17 12:30:26;;;;;;;2.58;0.80;;;12.20;99.90;;;;;;5063663;28;20029;-74
2021/03/17 12:32:53;;;;;;;3.40;0.73;;;11.90;99.90;;;;;;5063510;28;20063;-72
2021/03/17 12:35:20;;;;;;;1.00;0.57;;;11.80;99.90;;;;;;5064806;28;20037;-72
2021/03/17 12:37:48;;;;;;;3.42;0.63;;;11.60;99.90;;;;;;5064886;28;20024;-72
2021/03/17 12:40:16;;;;;;;2.50;0.75;;;11.30;99.90;;;;;;5064570;28;20666;-72
2021/03/17 12:42:42;;;;;;;1.38;0.70;;;11.10;99.90;;;;;;5064793;28;20025;-72
2021/03/17 12:45:10;;;;;;;2.47;0.80;;;10.70;99.90;;;;;;5064679;28;20466;-72
2021/03/17 12:47:36;;;;;;;1.63;0.93;;;10.20;99.90;;;;;;5064929;28;20639;-72
2021/03/17 12:50:04;;;;;;;5.95;1.00;;;9.70;99.90;;;;;;5063398;28;20044;-73
2021/03/17 12:52:30;;;;;;;5.03;0.93;;;9.30;99.90;;;;;;5064507;28;20033;-74
2021/03/17 12:54:56;;;;;;;3.40;1.00;;;9.10;99.90;;;;;;5064723;28;20044;-73
2021/03/17 12:57:22;;;;;;;2.15;0.65;;;8.90;99.90;;;;;;5064556;28;20025;-73
2021/03/17 12:59:48;;;;;;;2.83;1.08;;;8.50;99.90;;;;;;5063392;28;20037;-72
2021/03/17 13:02:13;;;;;;;2.83;0.73;;;8.30;99.90;;;;;;5063226;28;20025;-73
2021/03/17 13:04:39;;;;;;;2.72;1.13;;;8.00;99.90;;;;;;5063169;28;20036;-72
2021/03/17 13:07:05;;;;;;;2.60;1.10;;;7.80;99.90;;;;;;5062895;28;20021;-73
2021/03/17 13:09:31;;;;;;;2.40;0.68;;;7.50;99.90;;;;;;5064362;28;20035;-73